createdAt,value
2023-01-13T00:00:22.963Z,99639.78
2023-01-13T00:02:50.522Z,99650.94
2023-01-13T00:05:18.168Z,99636.94
2023-01-13T00:07:46.388Z,99647.16
2023-01-13T00:10:13.912Z,99651.69
2023-01-13T00:12:41.773Z,99627.66
2023-01-13T00:15:10.817Z,99642.94
2023-01-13T00:17:39.864Z,99643.25
2023-01-13T00:20:08.313Z,99639.22
2023-01-13T00:22:36.108Z,99636.75
2023-01-13T00:25:04.237Z,99650.09
2023-01-13T00:27:31.884Z,99643.81
2023-01-13T00:29:59.642Z,99653.06
2023-01-13T00:32:27.472Z,99664.19
2023-01-13T00:34:56.674Z,99636.34
2023-01-13T00:37:24.187Z,99625.25
2023-01-13T00:39:52.001Z,99635.56
2023-01-13T00:42:37.108Z,99636.31
2023-01-13T00:45:05.376Z,99639.91
2023-01-13T00:47:32.903Z,99627.41
2023-01-13T00:50:01.794Z,99628.69
2023-01-13T00:52:29.340Z,99615.72
2023-01-13T00:54:57.029Z,99616.06
2023-01-13T00:57:24.571Z,99621.41
2023-01-13T00:59:52.083Z,99624.53
2023-01-13T01:02:19.584Z,99634.16
2023-01-13T01:04:47.138Z,99614.34
2023-01-13T01:07:16.006Z,99623.25
2023-01-13T01:09:43.523Z,99627.78
2023-01-13T01:12:11.072Z,99635.75
2023-01-13T01:14:38.602Z,99648.84
2023-01-13T01:17:06.159Z,99647.56
2023-01-13T01:19:37.255Z,99639.81
2023-01-13T01:22:04.749Z,99649.56
2023-01-13T01:24:33.610Z,99653.81
2023-01-13T01:27:01.131Z,99657.91
2023-01-13T01:29:28.689Z,99653.72
2023-01-13T01:31:58.132Z,99650.41
2023-01-13T01:34:25.680Z,99660.84
2023-01-13T01:36:53.172Z,99649.63
2023-01-13T01:39:20.683Z,99653.00
2023-01-13T01:42:03.483Z,99662.91
2023-01-13T01:45:01.272Z,99660.13
2023-01-13T01:47:30.898Z,99662.66
2023-01-13T01:49:59.382Z,99660.78
2023-01-13T01:52:31.711Z,99659.19
2023-01-13T01:55:04.016Z,99655.47
2023-01-13T01:57:39.195Z,99663.47
2023-01-13T02:00:07.993Z,99659.06
2023-01-13T02:02:44.463Z,99656.28
2023-01-13T02:05:12.048Z,99657.31
2023-01-13T02:07:41.938Z,99658.22
2023-01-13T02:10:12.010Z,99661.50
2023-01-13T02:12:42.746Z,99664.19
2023-01-13T02:15:12.924Z,99668.47
2023-01-13T02:18:00.495Z,99664.28
2023-01-13T02:20:57.866Z,99658.72
2023-01-13T02:24:20.211Z,99659.63
2023-01-13T02:27:18.385Z,99663.81
2023-01-13T02:30:30.201Z,99671.72
2023-01-13T02:33:09.905Z,99669.06
2023-01-13T02:35:46.147Z,99666.84
2023-01-13T02:38:16.147Z,99660.63
2023-01-13T02:40:55.644Z,99663.00
2023-01-13T02:43:47.000Z,99659.75
2023-01-13T02:46:22.659Z,99663.22
2023-01-13T02:48:53.597Z,99656.38
2023-01-13T02:51:24.863Z,99654.97
2023-01-13T02:53:57.511Z,99656.00
2023-01-13T02:56:27.491Z,99661.69
2023-01-13T02:58:57.075Z,99666.81
2023-01-13T03:01:26.326Z,99670.66
2023-01-13T03:03:53.941Z,99670.47
2023-01-13T03:06:37.081Z,99666.16
2023-01-13T03:09:10.056Z,99662.91
2023-01-13T03:11:51.634Z,99661.53
2023-01-13T03:14:37.172Z,99675.88
2023-01-13T03:17:18.369Z,99681.19
2023-01-13T03:19:58.136Z,99688.66
2023-01-13T03:22:32.740Z,99694.88
2023-01-13T03:25:08.255Z,99701.84
2023-01-13T03:27:43.206Z,99692.78
2023-01-13T03:30:18.832Z,99689.09
2023-01-13T03:32:53.067Z,99683.19
2023-01-13T03:35:24.953Z,99687.91
2023-01-13T03:37:58.884Z,99698.81
2023-01-13T03:40:29.938Z,99696.25
2023-01-13T03:43:20.965Z,99697.16
2023-01-13T03:45:52.583Z,99695.44
2023-01-13T03:48:26.813Z,99701.91
2023-01-13T03:50:56.845Z,99700.94
2023-01-13T03:53:30.338Z,99689.84
2023-01-13T03:56:01.742Z,99694.88
2023-01-13T03:58:33.757Z,99695.47
2023-01-13T04:01:06.516Z,99701.00
2023-01-13T04:03:41.141Z,99698.16
2023-01-13T04:06:16.888Z,99689.53
2023-01-13T04:08:51.324Z,99689.84
2023-01-13T04:11:23.452Z,99676.53
2023-01-13T04:13:51.848Z,99678.00
2023-01-13T04:16:19.460Z,99675.78
2023-01-13T04:18:50.920Z,99677.03
2023-01-13T04:21:18.469Z,99672.97
2023-01-13T04:23:46.035Z,99668.09
2023-01-13T04:26:13.541Z,99659.53
2023-01-13T04:28:41.068Z,99664.84
2023-01-13T04:31:08.644Z,99664.41
2023-01-13T04:33:36.173Z,99665.34
2023-01-13T04:36:05.822Z,99663.66
2023-01-13T04:38:33.326Z,99673.94
2023-01-13T04:41:00.861Z,99683.78
2023-01-13T04:43:28.403Z,99679.53
2023-01-13T04:45:56.081Z,99675.19
2023-01-13T04:48:23.598Z,99681.91
2023-01-13T04:50:51.151Z,99690.75
2023-01-13T04:53:19.985Z,99684.22
2023-01-13T04:55:49.592Z,99680.13
2023-01-13T04:58:17.135Z,99687.09
2023-01-13T05:00:44.907Z,99685.25
2023-01-13T05:03:12.468Z,99679.59
2023-01-13T05:05:40.147Z,99682.53
2023-01-13T05:08:08.954Z,99703.44
2023-01-13T05:10:37.855Z,99681.75
2023-01-13T05:13:22.856Z,99677.38
2023-01-13T05:16:09.237Z,99673.13
2023-01-13T05:18:38.043Z,99680.22
2023-01-13T05:21:25.702Z,99674.72
2023-01-13T05:24:11.038Z,99673.69
2023-01-13T05:26:39.948Z,99674.06
2023-01-13T05:29:07.464Z,99669.47
2023-01-13T05:31:35.044Z,99670.66
2023-01-13T05:34:02.706Z,99667.06
2023-01-13T05:36:30.274Z,99661.69
2023-01-13T05:38:57.818Z,99666.72
2023-01-13T05:41:42.921Z,99663.97
2023-01-13T05:44:11.744Z,99666.59
2023-01-13T05:46:40.392Z,99669.63
2023-01-13T05:49:07.953Z,99665.56
2023-01-13T05:51:35.474Z,99663.19
2023-01-13T05:54:03.032Z,99664.16
2023-01-13T05:56:30.604Z,99656.53
2023-01-13T05:58:58.104Z,99650.69
2023-01-13T06:01:27.083Z,99668.03
2023-01-13T06:03:54.701Z,99664.75
2023-01-13T06:06:22.232Z,99662.19
2023-01-13T06:08:50.188Z,99665.56
2023-01-13T06:11:17.780Z,99667.19
2023-01-13T06:13:45.364Z,99661.84
2023-01-13T06:16:12.933Z,99662.63
2023-01-13T06:18:41.861Z,99665.41
2023-01-13T06:21:09.432Z,99654.34
2023-01-13T06:23:38.531Z,99663.00
2023-01-13T06:26:13.328Z,99664.09
2023-01-13T06:28:40.903Z,99659.09
2023-01-13T06:31:11.067Z,99660.03
2023-01-13T06:33:42.098Z,99653.53
2023-01-13T06:36:17.326Z,99664.84
2023-01-13T06:38:48.370Z,99665.28
2023-01-13T06:41:16.729Z,99655.53
2023-01-13T06:43:43.335Z,99659.75
2023-01-13T06:46:10.868Z,99668.25
2023-01-13T06:48:38.436Z,99658.78
2023-01-13T06:51:06.427Z,99657.69
2023-01-13T06:53:35.285Z,99655.75
2023-01-13T06:56:02.765Z,99664.31
2023-01-13T06:58:30.290Z,99654.63
2023-01-13T07:01:01.080Z,99666.38
2023-01-13T07:03:28.651Z,99666.25
2023-01-13T07:05:57.132Z,99658.09
2023-01-13T07:08:25.402Z,99654.09
2023-01-13T07:10:54.579Z,99651.59
2023-01-13T07:13:40.166Z,99653.22
2023-01-13T07:16:09.122Z,99658.56
2023-01-13T07:18:37.012Z,99666.91
2023-01-13T07:21:06.931Z,99667.19
2023-01-13T07:23:36.351Z,99670.75
2023-01-13T07:26:05.871Z,99671.03
2023-01-13T07:28:33.730Z,99668.75
2023-01-13T07:31:02.067Z,99678.13
2023-01-13T07:33:32.786Z,99669.56
2023-01-13T07:36:02.233Z,99671.41
2023-01-13T07:38:30.222Z,99665.84
2023-01-13T07:40:57.880Z,99675.09
2023-01-13T07:43:31.869Z,99668.75
2023-01-13T07:45:59.927Z,99659.94
2023-01-13T07:48:28.232Z,99660.78
2023-01-13T07:50:56.130Z,99649.47
2023-01-13T07:53:24.879Z,99648.13
2023-01-13T07:55:56.315Z,99652.00
2023-01-13T07:58:24.040Z,99649.78
2023-01-13T08:00:53.357Z,99646.59
2023-01-13T08:03:21.256Z,99667.19
2023-01-13T08:05:49.069Z,99659.97
2023-01-13T08:08:17.001Z,99648.50
2023-01-13T08:10:44.942Z,99647.50
2023-01-13T08:13:19.940Z,99646.69
2023-01-13T08:15:50.171Z,99655.75
2023-01-13T08:18:21.935Z,99654.06
2023-01-13T08:20:49.817Z,99656.94
2023-01-13T08:23:17.474Z,99656.44
2023-01-13T08:25:45.442Z,99656.88
2023-01-13T08:28:13.561Z,99648.44
2023-01-13T08:30:41.320Z,99653.91
2023-01-13T08:33:09.721Z,99669.75
2023-01-13T08:35:39.029Z,99664.94
2023-01-13T08:38:06.955Z,99671.34
2023-01-13T08:40:34.758Z,99661.28
2023-01-13T08:43:03.545Z,99665.94
2023-01-13T08:45:31.396Z,99667.66
2023-01-13T08:47:59.205Z,99666.47
2023-01-13T08:50:26.694Z,99651.09
2023-01-13T08:52:55.645Z,99661.97
2023-01-13T08:55:23.195Z,99662.69
2023-01-13T08:57:50.718Z,99665.50
2023-01-13T09:00:19.010Z,99648.94
2023-01-13T09:02:46.584Z,99661.44
2023-01-13T09:05:16.221Z,99650.19
2023-01-13T09:07:45.198Z,99641.16
2023-01-13T09:10:14.079Z,99653.16
2023-01-13T09:12:59.062Z,99651.16
2023-01-13T09:15:26.667Z,99652.56
2023-01-13T09:17:54.234Z,99650.34
2023-01-13T09:20:21.872Z,99648.69
2023-01-13T09:22:49.399Z,99643.13
2023-01-13T09:25:18.316Z,99652.69
2023-01-13T09:27:45.852Z,99661.50
2023-01-13T09:30:13.986Z,99665.09
2023-01-13T09:32:41.612Z,99658.59
2023-01-13T09:35:08.951Z,99657.63
2023-01-13T09:37:38.556Z,99661.84
2023-01-13T09:40:10.504Z,99672.81
2023-01-13T09:43:04.401Z,99670.41
2023-01-13T09:45:35.879Z,99669.31
2023-01-13T09:48:10.849Z,99667.13
2023-01-13T09:50:49.984Z,99672.81
2023-01-13T09:53:21.297Z,99669.56
2023-01-13T09:55:49.535Z,99670.34
2023-01-13T09:58:20.043Z,99667.34
2023-01-13T10:00:59.528Z,99672.69
2023-01-13T10:03:28.720Z,99666.31
2023-01-13T10:06:04.438Z,99655.38
2023-01-13T10:08:34.461Z,99661.28
2023-01-13T10:11:24.767Z,99657.06
2023-01-13T10:13:58.207Z,99661.00
2023-01-13T10:16:34.420Z,99661.44
2023-01-13T10:19:07.825Z,99647.06
2023-01-13T10:21:57.601Z,99652.19
2023-01-13T10:24:36.236Z,99652.56
2023-01-13T10:27:06.443Z,99639.00
2023-01-13T10:29:37.305Z,99650.47
2023-01-13T10:32:05.276Z,99656.81
2023-01-13T10:34:33.954Z,99661.19
2023-01-13T10:37:06.165Z,99652.56
2023-01-13T10:39:42.874Z,99666.91
2023-01-13T10:42:15.191Z,99677.22
2023-01-13T10:44:52.606Z,99680.16
2023-01-13T10:47:23.643Z,99686.00
2023-01-13T10:50:03.587Z,99657.59
2023-01-13T10:52:33.686Z,99668.34
2023-01-13T10:55:01.493Z,99665.13
2023-01-13T10:57:29.664Z,99664.88
2023-01-13T10:59:58.538Z,99670.63
2023-01-13T11:02:29.327Z,99670.63
2023-01-13T11:05:03.824Z,99661.50
2023-01-13T11:07:34.631Z,99676.47
2023-01-13T11:10:18.653Z,99665.50
2023-01-13T11:12:54.731Z,99671.50
2023-01-13T11:15:32.558Z,99668.88
2023-01-13T11:18:05.019Z,99669.69
2023-01-13T11:20:37.209Z,99658.66
2023-01-13T11:23:14.414Z,99670.38
2023-01-13T11:25:45.853Z,99671.69
2023-01-13T11:28:26.313Z,99670.41
2023-01-13T11:31:00.085Z,99670.97
2023-01-13T11:33:36.808Z,99682.97
2023-01-13T11:36:12.091Z,99666.91
2023-01-13T11:38:45.930Z,99664.66
2023-01-13T11:41:25.698Z,99680.13
2023-01-13T11:43:59.621Z,99669.34
2023-01-13T11:46:29.085Z,99664.56
2023-01-13T11:48:57.616Z,99660.13
2023-01-13T11:51:34.229Z,99663.22
2023-01-13T11:54:17.344Z,99676.38
2023-01-13T11:57:04.962Z,99661.59
2023-01-13T12:00:11.890Z,99666.53
2023-01-13T12:02:56.920Z,99664.25
2023-01-13T12:05:34.745Z,99664.56
2023-01-13T12:08:18.109Z,99688.44
2023-01-13T12:10:57.984Z,99664.94
2023-01-13T12:13:34.761Z,99674.69
2023-01-13T12:16:11.425Z,99669.38
2023-01-13T12:19:07.519Z,99680.53
2023-01-13T12:21:39.469Z,99668.47
2023-01-13T12:24:18.889Z,99671.97
2023-01-13T12:26:53.288Z,99667.97
2023-01-13T12:29:27.544Z,99675.06
2023-01-13T12:31:55.696Z,99678.25
2023-01-13T12:34:36.412Z,99675.72
2023-01-13T12:37:11.179Z,99702.84
2023-01-13T12:39:51.674Z,99668.09
2023-01-13T12:42:41.017Z,99668.53
2023-01-13T12:45:22.718Z,99686.34
2023-01-13T12:47:50.398Z,99678.97
2023-01-13T12:51:00.462Z,99684.66
2023-01-13T12:53:36.442Z,99693.09
2023-01-13T12:56:44.398Z,99694.03
2023-01-13T12:59:51.049Z,99695.75
2023-01-13T13:02:40.034Z,99693.13
2023-01-13T13:05:44.798Z,99693.06
2023-01-13T13:08:25.263Z,99703.19
2023-01-13T13:11:37.918Z,99704.41
2023-01-13T13:14:06.381Z,99699.19
2023-01-13T13:16:46.720Z,99693.13
2023-01-13T13:19:43.778Z,99698.84
2023-01-13T13:22:45.670Z,99696.00
2023-01-13T13:25:27.788Z,99695.75
2023-01-13T13:28:16.862Z,99692.88
2023-01-13T13:30:51.403Z,99691.63
2023-01-13T13:33:36.573Z,99697.97
2023-01-13T13:36:17.382Z,99730.94
2023-01-13T13:39:23.021Z,99699.59
2023-01-13T13:42:14.062Z,99707.72
2023-01-13T13:45:04.457Z,99708.47
2023-01-13T13:47:36.378Z,99700.72
2023-01-13T13:50:09.977Z,99699.28
2023-01-13T13:52:41.105Z,99707.22
2023-01-13T13:55:17.142Z,99696.00
2023-01-13T13:57:48.835Z,99725.66
2023-01-13T14:00:26.046Z,99713.22
2023-01-13T14:02:58.261Z,99716.91
2023-01-13T14:05:30.845Z,99716.91
2023-01-13T14:08:03.054Z,99726.22
2023-01-13T14:10:32.291Z,99718.38
2023-01-13T14:13:03.910Z,99717.22
2023-01-13T14:15:34.607Z,99720.44
2023-01-13T14:18:05.246Z,99732.69
2023-01-13T14:20:34.444Z,99728.72
2023-01-13T14:23:05.150Z,99731.47
2023-01-13T14:25:36.614Z,99723.41
2023-01-13T14:28:18.132Z,99722.19
2023-01-13T14:30:46.199Z,99719.53
2023-01-13T14:33:17.191Z,99723.06
2023-01-13T14:36:08.070Z,99714.38
2023-01-13T14:38:35.574Z,99729.28
2023-01-13T14:41:12.808Z,99730.53
2023-01-13T14:43:46.117Z,99730.47
2023-01-13T14:46:14.546Z,99728.84
2023-01-13T14:48:46.967Z,99734.09
2023-01-13T14:51:23.597Z,99737.50
2023-01-13T14:53:52.035Z,99743.97
2023-01-13T14:56:55.008Z,99758.72
2023-01-13T14:59:57.422Z,99770.91
2023-01-13T15:02:41.109Z,99774.81
2023-01-13T15:05:39.782Z,99798.22
2023-01-13T15:08:22.982Z,99776.44
2023-01-13T15:10:54.578Z,99794.28
2023-01-13T15:13:28.439Z,99791.81
2023-01-13T15:15:59.239Z,99782.84
2023-01-13T15:18:27.137Z,99800.78
2023-01-13T15:20:55.644Z,99790.56
2023-01-13T15:23:23.199Z,99784.06
2023-01-13T15:25:50.940Z,99781.59
2023-01-13T15:28:20.865Z,99788.53
2023-01-13T15:30:49.437Z,99788.78
2023-01-13T15:33:19.065Z,99793.84
2023-01-13T15:35:49.572Z,99797.53
2023-01-13T15:38:19.354Z,99803.63
2023-01-13T15:40:47.957Z,99814.44
2023-01-13T15:43:34.201Z,99816.69
2023-01-13T15:46:19.645Z,99816.66
2023-01-13T15:48:53.027Z,99814.88
2023-01-13T15:51:22.420Z,99805.81
2023-01-13T15:53:50.016Z,99816.28
2023-01-13T15:56:23.397Z,99820.22
2023-01-13T15:58:51.069Z,99829.00
2023-01-13T16:01:18.625Z,99819.06
2023-01-13T16:03:47.549Z,99815.97
2023-01-13T16:06:19.369Z,99827.25
2023-01-13T16:08:47.196Z,99839.94
2023-01-13T16:11:15.087Z,99826.28
2023-01-13T16:13:43.008Z,99843.44
2023-01-13T16:16:19.638Z,99846.31
2023-01-13T16:18:49.031Z,99839.38
2023-01-13T16:21:19.037Z,99839.19
2023-01-13T16:23:46.773Z,99844.69
2023-01-13T16:26:19.289Z,99847.75
2023-01-13T16:28:46.847Z,99871.09
2023-01-13T16:31:22.511Z,99854.28
2023-01-13T16:33:51.509Z,99865.50
2023-01-13T16:36:20.690Z,99869.63
2023-01-13T16:38:49.336Z,99887.13
2023-01-13T16:41:17.144Z,99893.06
2023-01-13T16:43:44.917Z,99894.94
2023-01-13T16:46:20.249Z,99898.00
2023-01-13T16:48:48.303Z,99906.59
2023-01-13T16:51:17.316Z,99913.13
2023-01-13T16:53:45.332Z,99915.59
2023-01-13T16:56:28.508Z,99911.91
2023-01-13T16:58:58.156Z,99915.44
2023-01-13T17:01:28.158Z,99915.84
2023-01-13T17:03:56.532Z,99910.13
2023-01-13T17:06:29.872Z,99921.94
2023-01-13T17:09:01.535Z,99929.50
2023-01-13T17:11:29.126Z,99918.03
2023-01-13T17:13:56.728Z,99910.63
2023-01-13T17:16:26.041Z,99908.41
2023-01-13T17:18:54.185Z,99901.41
2023-01-13T17:21:21.886Z,99910.03
2023-01-13T17:23:51.536Z,99902.63
2023-01-13T17:26:29.431Z,99904.06
2023-01-13T17:28:56.905Z,99912.44
2023-01-13T17:31:24.452Z,99906.13
2023-01-13T17:33:52.127Z,99911.22
2023-01-13T17:36:19.737Z,99919.78
2023-01-13T17:38:47.269Z,99922.25
2023-01-13T17:41:16.095Z,99936.78
2023-01-13T17:43:43.696Z,99936.97
2023-01-13T17:46:11.539Z,99928.00
2023-01-13T17:48:39.451Z,99930.03
2023-01-13T17:51:12.004Z,99924.31
2023-01-13T17:53:40.711Z,99929.22
2023-01-13T17:56:10.199Z,99950.06
2023-01-13T17:58:41.375Z,99947.41
2023-01-13T18:01:10.653Z,99962.34
2023-01-13T18:03:39.231Z,99970.94
2023-01-13T18:06:09.372Z,99974.59
2023-01-13T18:08:37.947Z,99975.66
2023-01-13T18:11:05.774Z,99990.97
2023-01-13T18:13:34.668Z,100004.09
2023-01-13T18:16:07.165Z,99997.16
2023-01-13T18:18:35.287Z,100003.50
2023-01-13T18:21:21.869Z,100002.50
2023-01-13T18:24:09.511Z,99999.66
2023-01-13T18:26:54.873Z,100015.81
2023-01-13T18:29:22.721Z,100029.50
2023-01-13T18:31:52.393Z,100026.66
2023-01-13T18:34:20.134Z,100023.00
2023-01-13T18:36:48.106Z,100031.16
2023-01-13T18:39:15.831Z,100029.72
2023-01-13T18:42:01.106Z,100035.88
2023-01-13T18:44:28.678Z,100039.34
2023-01-13T18:46:57.610Z,100054.66
2023-01-13T18:49:25.214Z,100051.59
2023-01-13T18:51:52.699Z,100067.16
2023-01-13T18:54:20.408Z,100055.09
2023-01-13T18:56:49.278Z,100060.59
2023-01-13T18:59:17.206Z,100071.22
2023-01-13T19:01:45.190Z,100067.34
2023-01-13T19:04:16.756Z,100064.69
2023-01-13T19:06:49.044Z,100074.69
2023-01-13T19:09:17.373Z,100073.28
2023-01-13T19:11:46.662Z,100083.69
2023-01-13T19:14:33.828Z,100070.41
2023-01-13T19:17:02.448Z,100086.34
2023-01-13T19:19:32.681Z,100073.06
2023-01-13T19:22:00.188Z,100075.31
2023-01-13T19:24:27.837Z,100092.47
2023-01-13T19:26:55.580Z,100087.78
2023-01-13T19:29:23.184Z,100117.81
2023-01-13T19:31:50.663Z,100116.59
2023-01-13T19:34:18.358Z,100107.63
2023-01-13T19:36:47.233Z,100111.69
2023-01-13T19:39:14.902Z,100110.47
2023-01-13T19:42:00.067Z,100120.91
2023-01-13T19:44:45.408Z,100134.81
2023-01-13T19:47:12.921Z,100135.84
2023-01-13T19:49:40.478Z,100136.03
2023-01-13T19:52:09.333Z,100153.63
2023-01-13T19:54:37.007Z,100141.56
2023-01-13T19:57:05.951Z,100145.19
2023-01-13T19:59:33.680Z,100147.69
2023-01-13T20:02:03.557Z,100166.06
2023-01-13T20:04:38.193Z,100169.34
2023-01-13T20:07:06.626Z,100163.84
2023-01-13T20:09:35.589Z,100173.66
2023-01-13T20:12:05.193Z,100171.81
2023-01-13T20:14:32.738Z,100172.63
2023-01-13T20:17:00.394Z,100173.25
2023-01-13T20:19:28.037Z,100186.13
2023-01-13T20:21:55.574Z,100199.63
2023-01-13T20:24:24.609Z,100193.47
2023-01-13T20:26:54.610Z,100197.78
2023-01-13T20:29:23.183Z,100206.16
2023-01-13T20:31:50.986Z,100204.94
2023-01-13T20:34:19.132Z,100205.75
2023-01-13T20:36:47.999Z,100198.38
2023-01-13T20:39:17.625Z,100209.44
2023-01-13T20:42:03.374Z,100216.41
2023-01-13T20:44:32.454Z,100220.28
2023-01-13T20:47:00.095Z,100223.94
2023-01-13T20:49:28.538Z,100225.59
2023-01-13T20:51:56.143Z,100212.09
2023-01-13T20:54:24.100Z,100230.91
2023-01-13T20:56:51.916Z,100238.91
2023-01-13T20:59:19.754Z,100239.28
2023-01-13T21:01:48.684Z,100242.38
2023-01-13T21:04:16.260Z,100249.09
2023-01-13T21:06:43.797Z,100261.38
2023-01-13T21:09:11.324Z,100260.16
2023-01-13T21:11:56.244Z,100239.31
2023-01-13T21:14:40.358Z,100244.63
2023-01-13T21:17:32.100Z,100248.31
2023-01-13T21:19:59.009Z,100262.22
2023-01-13T21:22:27.068Z,100255.69
2023-01-13T21:24:54.628Z,100268.75
2023-01-13T21:27:22.249Z,100279.41
2023-01-13T21:29:49.817Z,100276.91
2023-01-13T21:32:18.745Z,100282.25
2023-01-13T21:34:46.263Z,100285.06
2023-01-13T21:37:14.775Z,100285.44
2023-01-13T21:39:43.017Z,100289.34
2023-01-13T21:42:31.241Z,100302.22
2023-01-13T21:45:16.593Z,100310.44
2023-01-13T21:47:52.027Z,100316.13
2023-01-13T21:50:22.563Z,100311.63
2023-01-13T21:52:52.336Z,100325.56
2023-01-13T21:55:24.919Z,100323.53
2023-01-13T21:57:54.340Z,100336.81
2023-01-13T22:00:23.630Z,100352.97
2023-01-13T22:02:52.709Z,100342.34
2023-01-13T22:05:22.142Z,100350.13
2023-01-13T22:07:50.280Z,100356.03
2023-01-13T22:10:20.199Z,100352.56
2023-01-13T22:12:48.147Z,100366.25
2023-01-13T22:15:17.800Z,100376.88
2023-01-13T22:17:48.271Z,100370.91
2023-01-13T22:20:18.159Z,100368.47
2023-01-13T22:22:45.823Z,100394.00
2023-01-13T22:25:15.019Z,100401.31
2023-01-13T22:27:44.379Z,100421.53
2023-01-13T22:30:14.001Z,100401.09
2023-01-13T22:32:41.616Z,100402.75
2023-01-13T22:35:11.632Z,100409.84
2023-01-13T22:37:40.620Z,100415.94
2023-01-13T22:40:10.543Z,100407.41
2023-01-13T22:42:39.122Z,100417.88
2023-01-13T22:45:08.460Z,100413.34
2023-01-13T22:47:36.061Z,100431.72
2023-01-13T22:50:03.649Z,100441.97
2023-01-13T22:52:31.173Z,100441.56
2023-01-13T22:55:00.680Z,100448.94
2023-01-13T22:57:36.059Z,100450.19
2023-01-13T23:00:11.702Z,100456.50
2023-01-13T23:02:39.236Z,100456.72
2023-01-13T23:05:07.339Z,100462.84
2023-01-13T23:07:35.387Z,100469.41
2023-01-13T23:10:04.663Z,100474.34
2023-01-13T23:12:32.172Z,100477.59
2023-01-13T23:14:59.718Z,100482.94
2023-01-13T23:17:27.267Z,100489.44
2023-01-13T23:19:54.752Z,100496.22
2023-01-13T23:22:22.326Z,100494.38
2023-01-13T23:24:49.845Z,100501.34
2023-01-13T23:27:18.823Z,100501.00
2023-01-13T23:29:46.383Z,100500.56
2023-01-13T23:32:13.886Z,100502.63
2023-01-13T23:34:41.401Z,100505.69
2023-01-13T23:37:08.915Z,100512.44
2023-01-13T23:39:36.444Z,100515.13
2023-01-13T23:42:04.064Z,100518.25
2023-01-13T23:44:32.929Z,100514.13
2023-01-13T23:47:00.517Z,100510.44
2023-01-13T23:49:28.085Z,100521.72
2023-01-13T23:51:55.626Z,100533.38
2023-01-13T23:54:23.284Z,100520.22
2023-01-13T23:56:52.357Z,100522.88
2023-01-13T23:59:20.167Z,100525.94
